createdAt,value
2023-04-15T00:02:09.090Z,22.9
2023-04-15T00:07:27.223Z,22.9
2023-04-15T00:12:45.630Z,22.9
2023-04-15T00:18:03.813Z,22.9
2023-04-15T00:23:22.179Z,22.9
2023-04-15T00:28:40.595Z,22.9
2023-04-15T00:33:58.730Z,22.9
2023-04-15T00:39:17.251Z,22.9
2023-04-15T00:44:35.421Z,22.9
2023-04-15T00:49:53.551Z,22.9
2023-04-15T00:55:11.554Z,22.9
2023-04-15T01:00:29.957Z,22.9
2023-04-15T01:05:48.257Z,22.9
2023-04-15T01:11:06.609Z,22.9
2023-04-15T01:16:25.165Z,22.9
2023-04-15T01:21:43.674Z,22.9
2023-04-15T01:27:02.005Z,22.9
2023-04-15T01:32:20.369Z,22.9
2023-04-15T01:37:38.918Z,22.9
2023-04-15T01:42:57.307Z,22.9
2023-04-15T01:48:15.466Z,22.9
2023-04-15T01:53:33.850Z,22.9
2023-04-15T01:58:52.199Z,22.9
2023-04-15T02:04:10.753Z,22.9
2023-04-15T02:09:29.628Z,22.9
2023-04-15T02:14:48.184Z,22.9
2023-04-15T02:20:06.434Z,22.9
2023-04-15T02:25:24.430Z,22.9
2023-04-15T02:30:42.782Z,22.9
2023-04-15T02:36:00.954Z,23
2023-04-15T02:41:19.565Z,23
2023-04-15T02:46:37.873Z,22.9
2023-04-15T02:51:56.219Z,23
2023-04-15T02:57:14.346Z,23
2023-04-15T03:02:32.549Z,23
2023-04-15T03:07:51.108Z,23
2023-04-15T03:13:09.430Z,23
2023-04-15T03:18:27.746Z,23
2023-04-15T03:23:45.777Z,23
2023-04-15T03:29:04.321Z,23
2023-04-15T03:34:22.653Z,23
2023-04-15T03:39:41.241Z,23
2023-04-15T03:44:59.606Z,23
2023-04-15T03:50:17.743Z,23
2023-04-15T03:55:35.718Z,23
2023-04-15T04:00:54.035Z,23
2023-04-15T04:06:12.548Z,23
2023-04-15T04:11:30.949Z,23
2023-04-15T04:16:49.205Z,23
2023-04-15T04:22:07.666Z,23
2023-04-15T04:27:26.019Z,23
2023-04-15T04:32:44.208Z,23
2023-04-15T04:38:02.916Z,23
2023-04-15T04:43:21.330Z,23
2023-04-15T04:48:39.475Z,23
2023-04-15T05:49:22.237Z,23.2
2023-04-15T05:54:40.927Z,23.2
2023-04-15T06:16:39.760Z,23.4
2023-04-15T11:46:16.320Z,23.4
2023-04-15T11:51:35.928Z,23.4
2023-04-15T12:02:25.967Z,23.4
2023-04-15T12:08:05.310Z,23.4
2023-04-15T12:13:23.837Z,23.4
2023-04-15T12:18:51.189Z,23.4
2023-04-15T12:24:10.112Z,23.4
2023-04-15T12:35:00.210Z,23.4
2023-04-15T12:40:23.300Z,23.4
2023-04-15T12:45:41.916Z,23.3
2023-04-15T12:51:00.278Z,23.4
2023-04-15T12:56:18.411Z,23.4
2023-04-15T13:01:37.162Z,23.4
2023-04-15T13:06:55.604Z,23.4
2023-04-15T13:12:13.803Z,23.3
2023-04-15T13:17:32.439Z,23.3
2023-04-15T13:22:50.742Z,23.2
2023-04-15T13:28:09.122Z,23
2023-04-15T13:33:27.462Z,22.8
2023-04-15T13:38:45.836Z,22.8
2023-04-15T13:44:05.888Z,22.7
2023-04-15T13:49:25.479Z,22.7
2023-04-15T13:54:43.830Z,22.6
2023-04-15T14:00:01.990Z,22.5
2023-04-15T14:05:20.370Z,22.6
2023-04-15T14:10:38.523Z,22.6
2023-04-15T14:15:56.946Z,22.7
2023-04-15T14:21:15.261Z,22.6
2023-04-15T14:26:33.971Z,22.4
2023-04-15T14:32:12.838Z,22.5
2023-04-15T14:37:32.390Z,22.5
2023-04-15T14:42:50.755Z,22.5
2023-04-15T14:48:08.861Z,22.5
2023-04-15T14:53:27.296Z,22.5
2023-04-15T14:58:45.710Z,22.5
2023-04-15T15:04:04.126Z,22.5
2023-04-15T15:09:07.616Z,22.4
2023-04-15T15:14:25.988Z,22.4
2023-04-15T15:19:44.400Z,22.3
2023-04-15T15:25:03.147Z,22.2
2023-04-15T15:30:22.996Z,22.2
2023-04-15T15:35:41.283Z,22.2
2023-04-15T15:41:00.286Z,22.3
2023-04-15T15:46:18.941Z,22.4
2023-04-15T15:51:37.181Z,22.4
2023-04-15T15:56:55.512Z,22.5
2023-04-15T16:02:14.118Z,22.5
2023-04-15T16:07:32.874Z,22.5
2023-04-15T16:12:50.834Z,22.5
2023-04-15T16:18:09.206Z,22.5
2023-04-15T16:23:27.945Z,22.6
2023-04-15T16:28:46.456Z,22.7
2023-04-15T16:34:05.083Z,22.8
2023-04-15T16:39:23.450Z,22.8
2023-04-15T16:44:41.996Z,22.9
2023-04-15T16:50:00.482Z,22.8
2023-04-15T16:55:18.632Z,22.7
2023-04-15T17:00:37.106Z,22.6
2023-04-15T17:05:55.852Z,22.5
2023-04-15T17:11:14.178Z,22.5
2023-04-15T17:16:32.705Z,22.4
2023-04-15T17:21:52.428Z,22.4
2023-04-15T17:27:13.052Z,22.4
2023-04-15T17:32:31.319Z,22.5
2023-04-15T17:37:49.950Z,22.6
2023-04-15T17:43:08.252Z,22.6
2023-04-15T17:48:26.591Z,22.8
2023-04-15T17:53:44.988Z,22.9
2023-04-15T17:59:03.185Z,22.9
2023-04-15T18:04:24.942Z,22.9
2023-04-15T18:09:45.296Z,23
2023-04-15T18:15:03.914Z,23
2023-04-15T18:20:22.497Z,23
2023-04-15T18:25:40.905Z,22.8
2023-04-15T18:30:59.268Z,22.8
2023-04-15T18:36:17.455Z,22.8
2023-04-15T18:41:35.699Z,22.8
2023-04-15T18:46:54.161Z,22.8
2023-04-15T18:52:12.492Z,22.8
2023-04-15T18:57:35.468Z,22.8
2023-04-15T19:02:56.380Z,22.8
2023-04-15T19:08:14.573Z,22.8
2023-04-15T19:13:32.949Z,22.8
2023-04-15T19:18:51.230Z,22.7
2023-04-15T19:24:09.610Z,22.6
2023-04-15T19:29:27.730Z,22.6
2023-04-15T19:34:46.092Z,22.6
2023-04-15T19:40:04.415Z,22.6
2023-04-15T19:45:22.872Z,22.5
2023-04-15T19:50:41.508Z,22.5
2023-04-15T19:55:59.837Z,22.5
2023-04-15T20:01:18.427Z,22.5
2023-04-15T20:06:36.783Z,22.4
2023-04-15T20:12:52.539Z,22.5
2023-04-15T20:18:11.463Z,22.5
2023-04-15T20:23:29.796Z,22.5
2023-04-15T20:28:48.158Z,22.5
2023-04-15T20:34:06.526Z,22.5
2023-04-15T20:39:25.494Z,22.5
2023-04-15T20:44:43.718Z,22.5
2023-04-15T20:50:01.909Z,22.5
2023-04-15T20:55:20.409Z,22.6
2023-04-15T21:00:38.996Z,22.6
2023-04-15T21:05:57.116Z,22.6
2023-04-15T21:16:58.111Z,22.6
2023-04-15T21:22:16.677Z,22.6
2023-04-15T21:27:34.954Z,22.6
2023-04-15T21:32:53.656Z,22.6
2023-04-15T21:38:11.746Z,22.6
2023-04-15T21:43:30.877Z,22.6
2023-04-15T21:48:49.346Z,22.6
2023-04-15T21:54:07.541Z,22.6
2023-04-15T21:59:25.724Z,22.6
2023-04-15T22:04:44.066Z,22.6
2023-04-15T22:10:02.262Z,22.6
2023-04-15T22:15:20.455Z,22.6
2023-04-15T22:20:38.832Z,22.6
2023-04-15T22:25:56.822Z,22.6
2023-04-15T22:31:15.543Z,22.7
2023-04-15T22:36:33.575Z,22.7
2023-04-15T22:41:51.909Z,22.7
2023-04-15T22:47:10.480Z,22.7
2023-04-15T22:52:31.593Z,22.7
2023-04-15T22:57:49.852Z,22.7
2023-04-15T23:03:08.596Z,22.7
2023-04-15T23:08:26.836Z,22.7
2023-04-15T23:13:45.030Z,22.7
2023-04-15T23:19:03.258Z,22.7
2023-04-15T23:24:21.417Z,22.7
2023-04-15T23:29:39.793Z,22.7
2023-04-15T23:34:57.856Z,22.7
2023-04-15T23:40:17.303Z,22.7
2023-04-15T23:45:35.540Z,22.7
2023-04-15T23:50:53.861Z,22.7
2023-04-15T23:56:12.197Z,22.7
